Time;durP1;ratioP1;P1;durP2;ratioP2;P2;SDS_P1;SDS_P2;PMS_P1;PMS_P2;Temp;Humidity;BMP_temperature;BMP_pressure;BME280_temperature;BME280_humidity;BME280_pressure;Samples;Min_cycle;Max_cycle;Signal;HPM_P1;HPM_P2
2022/03/01 00:02:23;;;;;;;0.00;0.00;;;8.40;99.90;;;;;;5042981;28;19909;-63
2022/03/01 00:04:49;;;;;;;0.00;0.00;;;8.40;99.90;;;;;;5046453;28;20562;-62
2022/03/01 00:07:14;;;;;;;0.00;0.00;;;8.60;99.90;;;;;;5040980;28;20068;-63
2022/03/01 00:09:40;;;;;;;0.00;0.00;;;8.60;99.90;;;;;;5051036;28;20020;-62
2022/03/01 00:12:07;;;;;;;0.00;0.00;;;8.60;99.90;;;;;;5030082;28;20066;-63
2022/03/01 00:14:33;;;;;;;0.00;0.00;;;8.60;99.90;;;;;;5042478;28;20418;-61
2022/03/01 00:16:58;;;;;;;0.00;0.00;;;8.60;99.90;;;;;;5039034;28;20031;-62
2022/03/01 00:19:27;;;;;;;0.00;0.00;;;8.50;99.90;;;;;;5040451;28;20387;-63
2022/03/01 00:21:54;;;;;;;0.00;0.00;;;8.50;99.90;;;;;;5038318;28;20348;-62
2022/03/01 00:24:19;;;;;;;0.00;0.00;;;8.50;99.90;;;;;;5047253;28;20427;-62
2022/03/01 00:26:45;;;;;;;0.00;0.00;;;8.60;99.90;;;;;;5046278;28;20029;-62
2022/03/01 00:29:11;;;;;;;0.00;0.00;;;8.60;99.90;;;;;;5052843;28;20072;-64
2022/03/01 00:31:37;;;;;;;;;;;8.60;99.90;;;;;;5052959;28;20086;-62
2022/03/01 00:34:02;;;;;;;0.00;0.00;;;8.60;99.90;;;;;;5045589;28;19912;-62
2022/03/01 00:36:28;;;;;;;0.00;0.00;;;8.50;99.90;;;;;;5052020;28;20100;-62
2022/03/01 00:38:53;;;;;;;0.00;0.00;;;8.70;99.90;;;;;;5027177;28;20036;-61
2022/03/01 00:41:19;;;;;;;0.00;0.00;;;8.70;99.90;;;;;;5049256;28;20021;-61
2022/03/01 00:43:45;;;;;;;0.00;0.00;;;8.80;99.90;;;;;;5050274;28;20070;-62
2022/03/01 00:46:11;;;;;;;0.00;0.00;;;8.90;99.90;;;;;;5053772;28;20032;-61
2022/03/01 00:48:36;;;;;;;0.00;0.00;;;8.80;99.90;;;;;;5051900;28;20024;-62
2022/03/01 00:51:02;;;;;;;0.00;0.00;;;8.70;99.90;;;;;;5049114;28;20044;-61
2022/03/01 00:53:28;;;;;;;0.00;0.00;;;8.70;99.90;;;;;;5050716;28;20037;-61
2022/03/01 00:55:54;;;;;;;0.00;0.00;;;8.60;99.90;;;;;;5053377;28;20017;-62
2022/03/01 00:58:20;;;;;;;0.00;0.00;;;8.60;99.90;;;;;;5044224;28;20033;-62
2022/03/01 01:00:45;;;;;;;0.00;0.00;;;8.60;99.90;;;;;;5045422;28;20060;-61
2022/03/01 01:03:11;;;;;;;0.00;0.00;;;8.60;99.90;;;;;;5053557;28;20102;-62
2022/03/01 01:05:37;;;;;;;0.00;0.00;;;8.60;99.90;;;;;;5047526;28;20413;-62
2022/03/01 01:08:03;;;;;;;0.00;0.00;;;8.60;99.90;;;;;;5052015;28;20025;-62
2022/03/01 01:10:29;;;;;;;;;;;8.60;99.90;;;;;;5054454;28;20075;-61
2022/03/01 01:12:54;;;;;;;0.00;0.00;;;8.60;99.90;;;;;;5049102;28;20305;-62
2022/03/01 01:15:20;;;;;;;0.00;0.00;;;8.60;99.90;;;;;;5049641;28;20104;-62
2022/03/01 01:17:49;;;;;;;;;;;8.60;99.90;;;;;;5054001;28;20033;-62
2022/03/01 01:20:17;;;;;;;0.00;0.00;;;8.60;99.90;;;;;;5036066;28;19944;-62
2022/03/01 01:22:45;;;;;;;0.00;0.00;;;8.60;99.90;;;;;;5050137;28;20026;-62
2022/03/01 01:25:25;;;;;;;0.00;0.00;;;8.60;99.90;;;;;;5049069;28;20366;-62
2022/03/01 01:27:56;;;;;;;0.00;0.00;;;8.60;99.90;;;;;;5042445;28;20028;-62
2022/03/01 01:30:24;;;;;;;0.00;0.00;;;8.60;99.90;;;;;;5045963;28;20032;-60
2022/03/01 01:32:51;;;;;;;0.00;0.00;;;8.60;99.90;;;;;;5043132;28;20095;-62
2022/03/01 01:35:23;;;;;;;0.00;0.00;;;8.60;99.90;;;;;;5045537;28;20017;-61
2022/03/01 01:37:49;;;;;;;0.00;0.00;;;8.60;99.90;;;;;;5051009;28;20040;-62
2022/03/01 01:40:18;;;;;;;0.00;0.00;;;8.60;99.90;;;;;;5050853;28;20078;-61
2022/03/01 01:42:44;;;;;;;0.00;0.00;;;8.70;99.90;;;;;;5052312;28;20450;-61
2022/03/01 01:45:10;;;;;;;0.00;0.00;;;8.70;99.90;;;;;;5048901;28;20056;-62
2022/03/01 01:47:36;;;;;;;;;;;8.70;99.90;;;;;;5039178;28;20060;-61
2022/03/01 01:50:02;;;;;;;0.00;0.00;;;8.60;99.90;;;;;;5057408;28;20349;-60
2022/03/01 01:52:28;;;;;;;0.00;0.00;;;8.60;99.90;;;;;;5050094;28;20474;-61
2022/03/01 01:54:54;;;;;;;0.00;0.00;;;8.70;99.90;;;;;;5051436;28;20033;-61
2022/03/01 01:57:22;;;;;;;0.00;0.00;;;8.70;99.90;;;;;;5052188;28;20040;-62
2022/03/01 01:59:49;;;;;;;0.00;0.00;;;8.70;99.90;;;;;;5045561;28;20095;-62
2022/03/01 02:02:17;;;;;;;0.00;0.00;;;8.70;99.90;;;;;;5050341;28;20471;-62
2022/03/01 02:04:44;;;;;;;0.00;0.00;;;8.70;99.90;;;;;;5049462;28;20106;-62
2022/03/01 02:07:10;;;;;;;0.00;0.00;;;8.70;99.90;;;;;;5033731;28;20190;-62
2022/03/01 02:09:36;;;;;;;0.00;0.00;;;8.60;99.90;;;;;;5050883;28;20025;-63
2022/03/01 02:12:03;;;;;;;0.00;0.00;;;8.60;99.90;;;;;;5042152;28;20029;-61
2022/03/01 02:14:30;;;;;;;0.00;0.00;;;8.50;99.90;;;;;;5036278;28;20451;-62
2022/03/01 02:16:57;;;;;;;0.00;0.00;;;8.40;99.90;;;;;;5050770;28;20031;-62
2022/03/01 02:19:23;;;;;;;0.00;0.00;;;8.40;99.90;;;;;;5049888;28;20025;-62
2022/03/01 02:21:51;;;;;;;0.00;0.00;;;8.40;99.90;;;;;;5052787;28;20546;-62
2022/03/01 02:24:18;;;;;;;0.00;0.00;;;8.40;99.90;;;;;;5056367;28;20506;-62
2022/03/01 02:26:44;;;;;;;0.00;0.00;;;8.40;99.90;;;;;;5035642;28;20494;-61
2022/03/01 02:29:10;;;;;;;;;;;8.40;99.90;;;;;;5058484;28;20053;-62
2022/03/01 02:31:37;;;;;;;0.00;0.00;;;8.40;99.90;;;;;;5027427;28;19917;-62
2022/03/01 02:34:03;;;;;;;0.00;0.00;;;8.40;99.90;;;;;;5054627;28;20060;-61
2022/03/01 02:36:29;;;;;;;0.00;0.00;;;8.40;99.90;;;;;;5056070;28;20531;-62
2022/03/01 02:38:55;;;;;;;0.00;0.00;;;8.50;99.90;;;;;;5050559;28;20022;-61
2022/03/01 02:41:21;;;;;;;0.00;0.00;;;8.50;99.90;;;;;;5049078;28;20025;-62
2022/03/01 02:43:47;;;;;;;0.00;0.00;;;8.40;99.90;;;;;;5033501;28;20028;-62
2022/03/01 02:46:13;;;;;;;0.00;0.00;;;8.40;99.90;;;;;;5047121;28;20348;-62
2022/03/01 02:48:38;;;;;;;0.00;0.00;;;8.30;99.90;;;;;;5041718;28;20112;-61
2022/03/01 02:51:04;;;;;;;0.00;0.00;;;8.30;99.90;;;;;;5049352;28;20033;-61
2022/03/01 02:53:30;;;;;;;0.00;0.00;;;8.40;99.90;;;;;;5051212;28;20028;-62
2022/03/01 02:55:55;;;;;;;0.00;0.00;;;8.40;99.90;;;;;;5050613;28;20119;-62
2022/03/01 02:58:21;;;;;;;0.00;0.00;;;8.50;99.90;;;;;;5041591;28;20021;-61
2022/03/01 03:00:48;;;;;;;0.00;0.00;;;8.40;99.90;;;;;;5058518;28;20029;-62
2022/03/01 03:03:14;;;;;;;0.00;0.00;;;8.40;99.90;;;;;;5033662;28;20444;-61
2022/03/01 03:05:40;;;;;;;0.00;0.00;;;8.30;99.90;;;;;;5042203;28;20418;-63
2022/03/01 03:08:07;;;;;;;0.00;0.00;;;8.30;99.90;;;;;;5053579;28;20028;-61
2022/03/01 03:10:34;;;;;;;0.00;0.00;;;8.30;99.90;;;;;;5049093;28;20028;-61
2022/03/01 03:13:03;;;;;;;0.00;0.00;;;8.40;99.90;;;;;;5051118;28;20032;-61
2022/03/01 03:15:28;;;;;;;0.00;0.00;;;8.40;99.90;;;;;;5057269;28;20467;-61
2022/03/01 03:17:55;;;;;;;0.00;0.00;;;8.30;99.90;;;;;;5051095;28;20078;-62
2022/03/01 03:20:22;;;;;;;0.00;0.00;;;8.40;99.90;;;;;;5033028;28;20152;-60
2022/03/01 03:22:48;;;;;;;0.00;0.00;;;8.30;99.90;;;;;;5054606;28;20036;-60
2022/03/01 03:25:14;;;;;;;0.00;0.00;;;8.20;99.90;;;;;;5033472;28;20032;-61
2022/03/01 03:27:40;;;;;;;;;;;8.20;99.90;;;;;;5053386;28;20494;-60
2022/03/01 03:30:08;;;;;;;0.00;0.00;;;8.20;99.90;;;;;;5068359;28;19916;-61
2022/03/01 03:32:34;;;;;;;0.00;0.00;;;8.10;99.90;;;;;;5074410;28;20074;-62
2022/03/01 03:35:00;;;;;;;0.00;0.00;;;8.10;99.90;;;;;;5072134;28;20036;-61
2022/03/01 03:37:26;;;;;;;0.00;0.00;;;8.10;99.90;;;;;;5069088;28;20035;-61
2022/03/01 03:39:52;;;;;;;;;;;8.00;99.90;;;;;;5073357;28;20028;-61
2022/03/01 03:42:17;;;;;;;0.00;0.00;;;8.00;99.90;;;;;;5054948;28;19908;-63
2022/03/01 03:44:43;;;;;;;0.00;0.00;;;7.90;99.90;;;;;;5073136;28;20025;-61
2022/03/01 03:47:09;;;;;;;0.00;0.00;;;7.80;99.90;;;;;;5059740;28;20048;-60
2022/03/01 03:49:37;;;;;;;0.00;0.00;;;7.90;99.90;;;;;;5073671;28;20029;-61
2022/03/01 03:52:07;;;;;;;0.00;0.00;;;7.90;99.90;;;;;;5072144;28;20043;-62
2022/03/01 03:54:33;;;;;;;0.00;0.00;;;7.90;99.90;;;;;;5072969;28;20100;-61
2022/03/01 03:56:59;;;;;;;0.00;0.00;;;7.80;99.90;;;;;;5068917;28;20020;-61
2022/03/01 03:59:25;;;;;;;0.00;0.00;;;7.90;99.90;;;;;;5070163;28;20058;-64
2022/03/01 04:01:51;;;;;;;0.00;0.00;;;7.90;99.90;;;;;;5064650;28;20370;-61
2022/03/01 04:04:17;;;;;;;0.00;0.00;;;7.80;99.90;;;;;;5069144;28;20036;-61
2022/03/01 04:06:43;;;;;;;;;;;7.90;99.90;;;;;;5066638;28;20029;-61
2022/03/01 04:09:09;;;;;;;0.00;0.00;;;7.80;99.90;;;;;;5070038;28;19919;-61
2022/03/01 04:11:35;;;;;;;0.00;0.00;;;7.80;99.90;;;;;;5070630;28;20028;-61
2022/03/01 04:14:01;;;;;;;;;;;7.90;99.90;;;;;;5067161;28;20032;-61
2022/03/01 04:16:27;;;;;;;0.00;0.00;;;7.80;99.90;;;;;;5069233;28;19909;-61
2022/03/01 04:18:54;;;;;;;0.00;0.00;;;7.70;99.90;;;;;;5070225;28;20502;-61
2022/03/01 04:21:20;;;;;;;0.00;0.00;;;7.70;99.90;;;;;;5065527;28;20087;-61
2022/03/01 04:23:46;;;;;;;0.00;0.00;;;7.70;99.90;;;;;;5072169;28;20466;-61
2022/03/01 04:26:12;;;;;;;0.00;0.00;;;7.70;99.90;;;;;;5073545;28;20039;-61
2022/03/01 04:28:38;;;;;;;0.00;0.00;;;7.60;99.90;;;;;;5059467;28;20049;-61
2022/03/01 04:31:04;;;;;;;0.00;0.00;;;7.60;99.90;;;;;;5037326;28;20053;-62
2022/03/01 04:33:30;;;;;;;0.00;0.00;;;7.60;99.90;;;;;;5034247;28;20040;-62
2022/03/01 04:35:59;;;;;;;0.00;0.00;;;7.60;99.90;;;;;;5052875;28;20536;-60
2022/03/01 04:38:25;;;;;;;0.00;0.00;;;7.60;99.90;;;;;;5052425;28;20029;-61
2022/03/01 04:40:52;;;;;;;0.00;0.00;;;7.50;99.90;;;;;;5051714;28;20386;-61
2022/03/01 04:43:19;;;;;;;0.00;0.00;;;7.50;99.90;;;;;;5052265;28;20112;-61
2022/03/01 04:45:45;;;;;;;0.00;0.00;;;7.50;99.90;;;;;;5053144;28;20052;-61
2022/03/01 04:48:11;;;;;;;;;;;7.60;99.90;;;;;;5047470;28;20048;-61
2022/03/01 04:50:36;;;;;;;0.00;0.00;;;7.50;99.90;;;;;;5045680;28;20350;-61
2022/03/01 04:53:02;;;;;;;0.00;0.00;;;7.40;99.90;;;;;;5052748;28;20510;-61
2022/03/01 04:55:28;;;;;;;0.00;0.00;;;7.50;99.90;;;;;;5042308;28;20033;-61
2022/03/01 04:57:54;;;;;;;0.00;0.00;;;7.50;99.90;;;;;;5026709;28;20475;-62
2022/03/01 05:00:21;;;;;;;0.00;0.00;;;7.40;99.90;;;;;;5047418;28;20020;-61
2022/03/01 05:02:47;;;;;;;0.00;0.00;;;7.40;99.90;;;;;;5052508;28;20037;-62
2022/03/01 05:05:14;;;;;;;0.00;0.00;;;7.40;99.90;;;;;;5052186;28;20035;-61
2022/03/01 05:07:42;;;;;;;0.00;0.00;;;7.30;99.90;;;;;;5046022;28;20028;-61
2022/03/01 05:10:11;;;;;;;0.00;0.00;;;7.30;99.90;;;;;;5034713;28;20025;-61
2022/03/01 05:12:53;;;;;;;0.00;0.00;;;7.30;99.90;;;;;;5050570;28;20025;-61
2022/03/01 05:15:21;;;;;;;0.00;0.00;;;7.30;99.90;;;;;;5048513;28;20037;-61
2022/03/01 05:17:48;;;;;;;0.00;0.00;;;7.20;99.90;;;;;;5047638;28;20029;-61
2022/03/01 05:20:15;;;;;;;0.00;0.00;;;7.20;99.90;;;;;;5044086;28;20033;-61
2022/03/01 05:22:42;;;;;;;0.00;0.00;;;7.10;99.90;;;;;;5049837;28;20509;-61
2022/03/01 05:25:09;;;;;;;0.00;0.00;;;7.00;99.90;;;;;;5052542;28;20021;-61
2022/03/01 05:27:39;;;;;;;0.00;0.00;;;7.00;99.90;;;;;;5048182;28;20029;-62
2022/03/01 05:30:07;;;;;;;0.00;0.00;;;7.00;99.90;;;;;;5044627;28;20040;-61
2022/03/01 05:32:37;;;;;;;0.00;0.00;;;7.00;99.90;;;;;;5049312;28;20513;-62
2022/03/01 05:35:04;;;;;;;0.00;0.00;;;7.00;99.90;;;;;;5051025;28;20033;-62
2022/03/01 05:37:30;;;;;;;0.00;0.00;;;7.10;99.90;;;;;;5050035;28;20025;-61
2022/03/01 05:39:55;;;;;;;0.00;0.00;;;7.20;99.90;;;;;;5029729;28;20074;-62
2022/03/01 05:42:22;;;;;;;0.00;0.00;;;7.20;99.90;;;;;;5039562;28;20033;-63
2022/03/01 05:44:47;;;;;;;0.00;0.00;;;7.30;99.90;;;;;;5033582;28;20468;-61
2022/03/01 05:47:13;;;;;;;0.00;0.00;;;7.30;99.90;;;;;;5050586;28;20067;-62
2022/03/01 05:49:39;;;;;;;0.00;0.00;;;7.30;99.90;;;;;;5052611;28;20037;-60
2022/03/01 05:52:05;;;;;;;0.00;0.00;;;7.30;99.90;;;;;;5048859;28;20092;-63
2022/03/01 05:54:31;;;;;;;0.00;0.00;;;7.40;99.90;;;;;;5043989;28;20159;-61
2022/03/01 05:56:57;;;;;;;0.00;0.00;;;7.40;99.90;;;;;;5055390;28;20490;-61
2022/03/01 05:59:23;;;;;;;0.00;0.00;;;7.40;99.90;;;;;;5045881;28;20470;-63
2022/03/01 06:01:49;;;;;;;0.00;0.00;;;7.50;99.90;;;;;;5053595;28;20056;-61
2022/03/01 06:04:15;;;;;;;0.00;0.00;;;7.50;99.90;;;;;;5047769;28;20033;-62
2022/03/01 06:06:41;;;;;;;0.00;0.00;;;7.50;99.90;;;;;;5035032;28;20099;-62
2022/03/01 06:09:07;;;;;;;0.00;0.00;;;7.50;99.90;;;;;;5042260;28;20018;-62
2022/03/01 06:11:33;;;;;;;0.00;0.00;;;7.50;99.90;;;;;;5051419;28;20037;-62
2022/03/01 06:13:59;;;;;;;0.00;0.00;;;7.60;99.90;;;;;;5049091;28;20028;-62
2022/03/01 06:16:25;;;;;;;0.00;0.00;;;7.50;99.90;;;;;;5056599;28;20033;-65
2022/03/01 06:18:50;;;;;;;0.00;0.00;;;7.60;99.90;;;;;;5039713;28;20053;-61
2022/03/01 06:21:16;;;;;;;0.00;0.00;;;7.60;99.90;;;;;;5055904;28;20032;-61
2022/03/01 06:23:42;;;;;;;0.00;0.00;;;7.70;99.90;;;;;;5054104;28;20071;-62
2022/03/01 06:26:08;;;;;;;0.00;0.00;;;7.70;99.90;;;;;;5050215;28;20025;-60
2022/03/01 06:28:34;;;;;;;0.00;0.00;;;7.70;99.90;;;;;;5047331;28;20056;-62
2022/03/01 06:31:00;;;;;;;0.00;0.00;;;7.70;99.90;;;;;;5053202;28;20036;-61
2022/03/01 06:33:25;;;;;;;0.00;0.00;;;7.80;99.90;;;;;;5049459;28;20395;-62
2022/03/01 06:35:51;;;;;;;0.00;0.00;;;7.70;99.90;;;;;;5049511;28;20501;-63
2022/03/01 06:38:17;;;;;;;0.00;0.00;;;7.80;99.90;;;;;;5055998;28;20382;-61
2022/03/01 06:40:43;;;;;;;0.00;0.00;;;7.90;99.90;;;;;;5032311;28;20134;-60
2022/03/01 06:43:09;;;;;;;0.00;0.00;;;7.90;99.90;;;;;;5031105;28;20061;-60
2022/03/01 06:45:34;;;;;;;0.00;0.00;;;7.90;99.90;;;;;;5046067;28;20375;-61
2022/03/01 06:48:00;;;;;;;0.00;0.00;;;7.90;99.90;;;;;;5049924;28;20112;-62
2022/03/01 06:50:26;;;;;;;0.00;0.00;;;7.90;99.90;;;;;;5028192;28;20090;-60
2022/03/01 06:52:52;;;;;;;0.00;0.00;;;8.00;99.90;;;;;;5047263;28;20083;-61
2022/03/01 06:55:21;;;;;;;0.00;0.00;;;8.00;99.90;;;;;;5042151;28;20037;-61
2022/03/01 06:57:48;;;;;;;0.00;0.00;;;8.00;99.90;;;;;;5055295;28;20053;-62
2022/03/01 07:00:14;;;;;;;0.00;0.00;;;7.90;99.90;;;;;;5046411;28;20037;-60
2022/03/01 07:02:41;;;;;;;0.00;0.00;;;7.90;99.90;;;;;;5037114;28;20091;-62
2022/03/01 07:05:13;;;;;;;0.00;0.00;;;8.00;99.90;;;;;;5054765;28;20378;-61
2022/03/01 07:07:39;;;;;;;0.00;0.00;;;8.00;99.90;;;;;;5052159;28;20024;-61
2022/03/01 07:10:07;;;;;;;0.00;0.00;;;8.00;99.90;;;;;;5049439;28;20021;-62
2022/03/01 07:12:32;;;;;;;0.00;0.00;;;8.10;99.90;;;;;;5048089;28;20036;-61
2022/03/01 07:14:58;;;;;;;0.00;0.00;;;8.10;99.90;;;;;;5052781;28;20029;-61
2022/03/01 07:17:24;;;;;;;0.00;0.00;;;8.10;99.90;;;;;;5051452;28;20025;-61
2022/03/01 07:19:50;;;;;;;0.00;0.00;;;8.10;99.90;;;;;;5052682;28;20033;-61
2022/03/01 07:22:16;;;;;;;0.00;0.00;;;8.10;99.90;;;;;;5051085;28;20078;-62
2022/03/01 07:24:42;;;;;;;0.00;0.00;;;8.10;99.90;;;;;;5054275;28;20044;-62
2022/03/01 07:27:09;;;;;;;0.00;0.00;;;8.10;99.90;;;;;;5051801;28;20021;-61
2022/03/01 07:29:34;;;;;;;0.00;0.00;;;8.20;99.90;;;;;;5061743;28;20126;-61
2022/03/01 07:32:01;;;;;;;0.00;0.00;;;8.20;99.90;;;;;;5073062;28;20158;-61
2022/03/01 07:34:26;;;;;;;;;;;8.10;99.90;;;;;;5066651;28;20116;-62
2022/03/01 07:36:52;;;;;;;0.00;0.00;;;8.20;99.90;;;;;;5070734;28;20338;-62
2022/03/01 07:39:18;;;;;;;0.00;0.00;;;8.30;99.90;;;;;;5072657;28;20024;-62
2022/03/01 07:41:44;;;;;;;0.00;0.00;;;8.30;99.90;;;;;;5064784;28;20026;-63
2022/03/01 07:44:10;;;;;;;0.00;0.00;;;8.40;99.90;;;;;;5086297;28;20524;-61
2022/03/01 07:46:35;;;;;;;0.00;0.00;;;8.30;99.90;;;;;;5071865;28;20606;-61
2022/03/01 07:49:01;;;;;;;0.00;0.00;;;8.40;99.90;;;;;;5071805;28;20480;-61
2022/03/01 07:51:26;;;;;;;0.00;0.00;;;8.40;99.90;;;;;;5070467;28;20035;-61
2022/03/01 07:53:52;;;;;;;0.00;0.00;;;8.30;99.90;;;;;;5066726;28;20041;-62
2022/03/01 07:56:21;;;;;;;0.00;0.00;;;8.30;99.90;;;;;;5074362;28;20104;-61
2022/03/01 07:58:48;;;;;;;0.00;0.00;;;8.30;99.90;;;;;;5057976;28;20061;-62
2022/03/01 08:01:14;;;;;;;0.00;0.00;;;8.30;99.90;;;;;;5066497;28;20029;-61
2022/03/01 08:03:40;;;;;;;0.00;0.00;;;8.30;99.90;;;;;;5063266;28;20021;-62
2022/03/01 08:06:06;;;;;;;0.00;0.00;;;8.30;99.90;;;;;;5067967;28;20025;-62
2022/03/01 08:08:32;;;;;;;0.00;0.00;;;8.30;99.90;;;;;;5072791;28;20086;-62
2022/03/01 08:10:58;;;;;;;0.00;0.00;;;8.20;99.90;;;;;;5054410;28;20025;-61
2022/03/01 08:13:24;;;;;;;0.00;0.00;;;8.10;99.90;;;;;;5060158;28;20051;-60
2022/03/01 08:15:50;;;;;;;0.00;0.00;;;8.20;99.90;;;;;;5072385;28;20487;-61
2022/03/01 08:18:17;;;;;;;0.00;0.00;;;8.20;99.90;;;;;;5071061;28;20037;-62
2022/03/01 08:20:42;;;;;;;;;;;8.20;99.90;;;;;;5063275;28;20120;-61
2022/03/01 08:23:09;;;;;;;0.00;0.00;;;8.20;99.90;;;;;;5069814;28;19948;-63
2022/03/01 08:25:35;;;;;;;0.00;0.00;;;8.10;99.90;;;;;;5069246;28;20364;-63
2022/03/01 08:28:04;;;;;;;0.00;0.00;;;8.10;99.90;;;;;;5063951;28;20032;-62
2022/03/01 08:30:30;;;;;;;0.00;0.00;;;8.20;99.90;;;;;;5065799;28;20060;-60
2022/03/01 08:32:56;;;;;;;;;;;8.20;99.90;;;;;;5065303;28;20051;-61
2022/03/01 08:35:22;;;;;;;0.00;0.00;;;8.20;99.90;;;;;;5069945;28;19912;-63
2022/03/01 08:37:51;;;;;;;0.00;0.00;;;8.30;99.90;;;;;;5054604;28;20055;-61
2022/03/01 08:40:19;;;;;;;0.00;0.00;;;8.30;99.90;;;;;;5048058;28;20323;-62
2022/03/01 08:42:45;;;;;;;0.00;0.00;;;8.30;99.90;;;;;;5066747;28;20530;-62
2022/03/01 08:45:12;;;;;;;0.00;0.00;;;8.40;99.90;;;;;;5046740;28;20017;-62
2022/03/01 08:47:39;;;;;;;0.00;0.00;;;8.30;99.90;;;;;;5063457;28;20032;-61
2022/03/01 08:50:05;;;;;;;0.00;0.00;;;8.40;99.90;;;;;;5047384;28;20051;-63
2022/03/01 08:52:31;;;;;;;0.00;0.00;;;8.50;99.90;;;;;;5068232;28;20040;-62
2022/03/01 08:54:57;;;;;;;0.00;0.00;;;8.50;99.90;;;;;;5061133;28;20086;-63
2022/03/01 08:57:22;;;;;;;0.00;0.00;;;8.50;99.90;;;;;;5038715;28;20494;-63
2022/03/01 08:59:48;;;;;;;0.00;0.00;;;8.50;99.90;;;;;;5063169;28;20020;-62
2022/03/01 09:02:17;;;;;;;0.00;0.00;;;8.60;99.90;;;;;;5068483;28;20482;-63
2022/03/01 09:04:44;;;;;;;0.00;0.00;;;8.60;99.90;;;;;;5057805;28;20389;-62
2022/03/01 09:07:10;;;;;;;0.00;0.00;;;8.60;99.90;;;;;;5053036;28;20028;-61
2022/03/01 09:09:36;;;;;;;0.00;0.00;;;8.60;99.90;;;;;;5068391;28;20048;-63
2022/03/01 09:12:02;;;;;;;0.00;0.00;;;8.70;99.90;;;;;;5049023;28;20111;-62
2022/03/01 09:14:28;;;;;;;0.00;0.00;;;8.80;99.90;;;;;;5065831;28;20064;-62
2022/03/01 09:16:54;;;;;;;0.00;0.00;;;8.80;99.90;;;;;;5060498;28;20053;-62
2022/03/01 09:19:20;;;;;;;0.00;0.00;;;8.80;99.90;;;;;;5067894;28;20029;-63
2022/03/01 09:21:45;;;;;;;0.00;0.00;;;8.80;99.90;;;;;;5062736;28;20620;-63
2022/03/01 09:24:11;;;;;;;0.00;0.00;;;8.80;99.90;;;;;;5065114;28;20021;-62
2022/03/01 09:26:37;;;;;;;0.00;0.00;;;8.90;99.90;;;;;;5056089;28;20128;-62
2022/03/01 09:29:04;;;;;;;0.00;0.00;;;9.00;99.90;;;;;;5054763;28;20053;-62
2022/03/01 09:31:30;;;;;;;0.00;0.00;;;8.90;99.90;;;;;;5036107;28;20035;-62
2022/03/01 09:33:56;;;;;;;0.00;0.00;;;9.00;99.90;;;;;;5054199;28;20104;-62
2022/03/01 09:36:22;;;;;;;0.00;0.00;;;9.00;99.90;;;;;;5052533;28;20029;-63
2022/03/01 09:38:48;;;;;;;0.00;0.00;;;9.20;99.90;;;;;;5053748;28;20088;-63
2022/03/01 09:41:15;;;;;;;0.00;0.00;;;9.10;99.90;;;;;;5048171;28;20414;-62
2022/03/01 09:43:42;;;;;;;0.00;0.00;;;9.10;99.90;;;;;;5050088;28;20026;-63
2022/03/01 09:46:09;;;;;;;0.00;0.00;;;9.00;99.90;;;;;;5064155;28;20027;-63
2022/03/01 09:48:36;;;;;;;0.00;0.00;;;9.10;99.90;;;;;;5048090;28;20029;-62
2022/03/01 09:51:04;;;;;;;0.00;0.00;;;9.20;99.90;;;;;;5053348;28;20056;-62
2022/03/01 09:53:30;;;;;;;0.00;0.00;;;9.40;99.90;;;;;;5029926;28;20137;-63
2022/03/01 09:55:56;;;;;;;0.00;0.00;;;9.30;99.90;;;;;;5061431;28;20013;-63
2022/03/01 09:58:23;;;;;;;0.00;0.00;;;9.40;99.90;;;;;;5036081;28;20037;-62
2022/03/01 10:00:49;;;;;;;0.00;0.00;;;9.30;99.90;;;;;;5048310;28;20025;-62
2022/03/01 10:03:16;;;;;;;0.00;0.00;;;9.40;99.90;;;;;;5049897;28;20052;-63
2022/03/01 10:05:43;;;;;;;0.00;0.00;;;9.40;99.90;;;;;;5046123;28;20174;-63
2022/03/01 10:08:10;;;;;;;0.00;0.00;;;9.50;99.90;;;;;;5037780;28;20032;-62
2022/03/01 10:10:43;;;;;;;0.00;0.00;;;9.50;99.90;;;;;;5049098;28;20025;-63
2022/03/01 10:13:11;;;;;;;0.00;0.00;;;9.60;99.90;;;;;;5043467;28;20563;-62
2022/03/01 10:15:37;;;;;;;0.00;0.00;;;9.50;99.90;;;;;;5042678;28;20067;-65
2022/03/01 10:18:14;;;;;;;0.00;0.00;;;9.40;99.90;;;;;;5047730;28;20501;-63
2022/03/01 10:20:44;;;;;;;0.00;0.00;;;9.40;99.90;;;;;;5049234;28;20402;-62
2022/03/01 10:23:11;;;;;;;0.00;0.00;;;9.30;99.90;;;;;;5040506;28;20107;-62
2022/03/01 10:25:39;;;;;;;0.00;0.00;;;9.40;99.90;;;;;;5043391;28;20032;-63
2022/03/01 10:28:06;;;;;;;0.00;0.00;;;9.60;99.90;;;;;;5028255;28;20029;-62
2022/03/01 10:30:37;;;;;;;0.00;0.00;;;9.50;99.90;;;;;;5053417;28;20410;-63
2022/03/01 10:33:09;;;;;;;0.00;0.00;;;9.60;99.90;;;;;;5048274;28;20037;-63
2022/03/01 10:35:41;;;;;;;0.00;0.00;;;9.60;99.90;;;;;;5042802;28;20040;-62
2022/03/01 10:38:08;;;;;;;0.00;0.00;;;9.60;99.90;;;;;;5051756;28;20021;-63
2022/03/01 10:40:36;;;;;;;0.00;0.00;;;9.50;99.90;;;;;;5040809;28;20436;-64
2022/03/01 10:43:10;;;;;;;0.00;0.00;;;9.50;99.90;;;;;;5041213;28;20024;-62
2022/03/01 10:45:39;;;;;;;0.00;0.00;;;9.50;99.90;;;;;;5048077;28;20060;-62
2022/03/01 10:48:07;;;;;;;0.00;0.00;;;9.50;99.90;;;;;;5045130;28;20044;-62
2022/03/01 10:50:34;;;;;;;0.00;0.00;;;9.60;99.90;;;;;;5042691;28;20729;-63
2022/03/01 10:53:00;;;;;;;0.00;0.00;;;9.50;99.90;;;;;;5051370;28;20478;-63
2022/03/01 10:55:28;;;;;;;0.00;0.00;;;9.40;99.90;;;;;;5041553;28;20152;-63
2022/03/01 10:58:04;;;;;;;0.00;0.00;;;9.30;99.90;;;;;;5034965;28;20033;-61
2022/03/01 11:00:32;;;;;;;0.00;0.00;;;9.40;99.90;;;;;;5044771;28;20033;-65
2022/03/01 11:02:57;;;;;;;0.00;0.00;;;9.50;99.90;;;;;;5045927;28;20032;-62
2022/03/01 11:05:23;;;;;;;0.00;0.00;;;9.50;99.90;;;;;;5040040;28;20032;-64
2022/03/01 11:07:50;;;;;;;;;;;9.40;99.90;;;;;;5045240;28;20537;-62
2022/03/01 11:10:18;;;;;;;0.00;0.00;;;9.30;99.90;;;;;;5051634;28;19908;-62
2022/03/01 11:12:47;;;;;;;0.00;0.00;;;9.30;99.90;;;;;;5031231;28;20128;-62
2022/03/01 11:15:18;;;;;;;0.00;0.00;;;9.40;99.90;;;;;;5044435;28;20033;-62
2022/03/01 11:17:58;;;;;;;0.00;0.00;;;9.40;99.90;;;;;;5042200;28;20056;-63
2022/03/01 11:20:27;;;;;;;0.00;0.00;;;9.30;99.90;;;;;;5039269;28;20069;-62
2022/03/01 11:22:58;;;;;;;0.00;0.00;;;9.40;99.90;;;;;;5036237;28;20032;-62
2022/03/01 11:25:29;;;;;;;0.00;0.00;;;9.30;99.90;;;;;;5040349;28;20071;-63
2022/03/01 11:30:51;;;;;;;0.00;0.00;;;9.10;99.90;;;;;;5101091;27;20382;-65
2022/03/01 11:33:36;;;;;;;0.00;0.00;;;9.10;99.90;;;;;;5086153;28;20390;-63
2022/03/01 11:36:04;;;;;;;0.00;0.00;;;9.10;99.90;;;;;;5070510;28;20116;-62
2022/03/01 11:38:32;;;;;;;0.00;0.00;;;9.20;99.90;;;;;;5082520;28;20033;-61
2022/03/01 11:41:16;;;;;;;0.00;0.00;;;9.30;99.90;;;;;;5081891;28;20052;-62
2022/03/01 11:43:41;;;;;;;0.00;0.00;;;9.10;99.90;;;;;;5081664;28;20025;-63
2022/03/01 11:46:17;;;;;;;0.00;0.00;;;9.20;99.90;;;;;;5062030;28;20047;-62
2022/03/01 11:48:51;;;;;;;0.00;0.00;;;9.20;99.90;;;;;;5080715;28;20116;-63
2022/03/01 11:51:17;;;;;;;0.00;0.00;;;9.20;99.90;;;;;;5081136;28;20142;-63
2022/03/01 11:53:46;;;;;;;0.00;0.00;;;9.10;99.90;;;;;;5080013;28;20389;-64
2022/03/01 11:56:13;;;;;;;0.00;0.00;;;9.10;99.90;;;;;;5082303;28;21097;-63
2022/03/01 11:58:39;;;;;;;0.00;0.00;;;9.00;99.90;;;;;;5086606;28;20737;-62
2022/03/01 12:01:07;;;;;;;0.00;0.00;;;9.00;99.90;;;;;;5079365;28;20078;-65
2022/03/01 12:03:38;;;;;;;0.00;0.00;;;8.90;99.90;;;;;;5082459;28;20123;-62
2022/03/01 12:06:07;;;;;;;0.00;0.00;;;9.00;99.90;;;;;;5070703;28;20386;-63
2022/03/01 12:08:37;;;;;;;0.00;0.00;;;9.10;99.90;;;;;;5074304;28;20418;-63
2022/03/01 12:11:06;;;;;;;0.00;0.00;;;9.00;99.90;;;;;;5083639;28;20382;-62
2022/03/01 12:13:46;;;;;;;0.00;0.00;;;9.00;99.90;;;;;;5080750;28;20482;-63
2022/03/01 12:16:32;;;;;;;0.00;0.00;;;9.00;99.90;;;;;;5086228;28;20048;-62
2022/03/01 12:19:15;;;;;;;0.00;0.00;;;8.90;99.90;;;;;;5081357;28;20025;-63
2022/03/01 12:21:48;;;;;;;0.00;0.00;;;8.90;99.90;;;;;;5087446;28;20028;-62
2022/03/01 12:24:14;;;;;;;0.00;0.00;;;9.00;99.90;;;;;;5065662;28;20055;-62
2022/03/01 12:26:45;;;;;;;0.00;0.00;;;9.00;99.90;;;;;;5082468;28;20505;-62
2022/03/01 12:29:12;;;;;;;0.00;0.00;;;8.90;99.90;;;;;;5078769;28;20398;-62
2022/03/01 12:31:39;;;;;;;0.00;0.00;;;8.90;99.90;;;;;;5056105;28;20029;-63
2022/03/01 12:34:09;;;;;;;0.00;0.00;;;9.00;99.90;;;;;;5057155;28;20025;-63
2022/03/01 12:36:38;;;;;;;0.00;0.00;;;8.90;99.90;;;;;;5061584;28;20021;-63
2022/03/01 12:39:12;;;;;;;0.00;0.00;;;8.90;99.90;;;;;;5067437;28;20033;-62
2022/03/01 12:41:39;;;;;;;0.00;0.00;;;9.00;99.90;;;;;;5046573;28;20096;-62
2022/03/01 12:44:08;;;;;;;0.00;0.00;;;8.90;99.90;;;;;;5049443;28;20107;-61
2022/03/01 12:46:35;;;;;;;0.00;0.00;;;8.90;99.90;;;;;;5047722;28;20123;-63
2022/03/01 12:49:06;;;;;;;0.00;0.00;;;9.00;99.90;;;;;;5043626;28;20044;-63
2022/03/01 12:51:33;;;;;;;0.00;0.00;;;9.10;99.90;;;;;;5044428;28;20426;-63
2022/03/01 12:54:01;;;;;;;0.00;0.00;;;9.20;99.90;;;;;;5050312;28;20471;-64
2022/03/01 12:56:32;;;;;;;0.00;0.00;;;9.00;99.90;;;;;;5047290;28;20056;-63
2022/03/01 12:59:09;;;;;;;0.00;0.00;;;9.00;99.90;;;;;;5051013;28;20087;-63
2022/03/01 13:01:39;;;;;;;0.00;0.00;;;9.00;99.90;;;;;;5046579;28;20021;-62
2022/03/01 13:04:08;;;;;;;0.00;0.00;;;9.10;99.90;;;;;;5050630;28;20371;-63